Time;durP1;ratioP1;P1;durP2;ratioP2;P2;SDS_P1;SDS_P2;PMS_P1;PMS_P2;Temp;Humidity;BMP_temperature;BMP_pressure;BME280_temperature;BME280_humidity;BME280_pressure;Samples;Min_cycle;Max_cycle;Signal;HPM_P1;HPM_P2
2022/03/13 00:00:53;;;;;;;9.95;7.30;;;;;;;8.87;45.70;100330.31;5054838;28;20057;-49
2022/03/13 00:03:22;;;;;;;9.07;6.95;;;;;;;8.89;45.29;100333.59;5054685;28;20513;-49
2022/03/13 00:05:54;;;;;;;11.23;8.97;;;;;;;8.83;47.44;100332.03;5054687;28;20049;-50
2022/03/13 00:08:27;;;;;;;11.82;9.77;;;;;;;8.79;47.34;100327.41;5054186;28;20485;-51
2022/03/13 00:10:57;;;;;;;13.63;9.90;;;;;;;8.76;48.22;100328.84;5054581;28;20056;-52
2022/03/13 00:13:32;;;;;;;11.98;9.50;;;;;;;8.74;47.83;100326.38;5054282;28;20071;-51
2022/03/13 00:16:03;;;;;;;13.13;10.07;;;;;;;8.72;47.60;100327.81;5053685;28;20048;-49
2022/03/13 00:18:32;;;;;;;11.07;9.15;;;;;;;8.65;47.60;100330.16;5051267;28;20071;-50
2022/03/13 00:21:04;;;;;;;12.27;10.05;;;;;;;8.56;47.71;100329.22;5045405;28;20075;-52
2022/03/13 00:23:32;;;;;;;11.07;9.05;;;;;;;8.54;47.97;100326.72;5054297;28;20048;-53
2022/03/13 00:25:59;;;;;;;10.50;8.90;;;;;;;8.52;48.32;100323.44;5053990;28;20056;-50
2022/03/13 00:28:28;;;;;;;11.75;8.95;;;;;;;8.49;48.20;100322.09;5054221;28;20049;-49
2022/03/13 00:30:56;;;;;;;12.90;9.93;;;;;;;8.45;48.67;100328.56;5054236;28;20060;-49
2022/03/13 00:33:25;;;;;;;12.93;10.38;;;;;;;8.39;48.93;100338.88;5054093;28;20057;-50
2022/03/13 00:35:52;;;;;;;13.20;10.53;;;;;;;8.33;49.36;100338.13;5054029;28;20063;-48
2022/03/13 00:38:22;;;;;;;12.77;8.80;;;;;;;8.26;48.99;100336.91;5053453;28;20053;-50
2022/03/13 00:40:52;;;;;;;11.25;8.77;;;;;;;8.17;48.96;100334.00;5053873;28;20139;-52
2022/03/13 00:43:22;;;;;;;11.77;9.27;;;;;;;8.09;49.22;100332.72;5053414;28;20417;-51
2022/03/13 00:45:51;;;;;;;12.18;9.38;;;;;;;8.05;49.79;100334.44;5054031;28;20057;-49
2022/03/13 00:48:21;;;;;;;11.02;8.88;;;;;;;7.96;49.81;100344.56;5053489;28;20060;-54
2022/03/13 00:50:48;;;;;;;;;;;;;;;7.87;50.00;100336.13;5054264;28;20064;-52
2022/03/13 00:53:18;;;;;;;11.93;8.95;;;;;;;7.81;50.45;100342.00;5053345;28;20396;-51
2022/03/13 00:55:46;;;;;;;13.02;9.68;;;;;;;7.83;50.87;100339.75;5053117;28;20067;-51
2022/03/13 00:58:13;;;;;;;12.30;9.75;;;;;;;7.67;51.00;100337.22;5053447;28;20061;-53
2022/03/13 01:00:41;;;;;;;12.35;9.20;;;;;;;7.68;49.90;100333.31;5053093;28;20064;-49
2022/03/13 01:03:30;;;;;;;12.00;9.20;;;;;;;7.67;50.40;100337.22;5052273;28;20052;-49
2022/03/13 01:06:02;;;;;;;13.32;9.55;;;;;;;7.57;50.47;100330.97;5053340;28;20068;-55
2022/03/13 01:08:30;;;;;;;12.20;9.38;;;;;;;7.53;51.02;100331.56;5053693;28;20412;-53
2022/03/13 01:10:58;;;;;;;12.30;9.73;;;;;;;7.40;51.63;100326.75;5053043;28;20060;-48
2022/03/13 01:13:26;;;;;;;13.50;9.98;;;;;;;7.42;51.11;100332.00;5053443;28;20103;-52
2022/03/13 01:16:00;;;;;;;13.82;10.27;;;;;;;7.36;51.25;100320.16;5053386;28;20131;-48
2022/03/13 01:18:29;;;;;;;13.32;9.80;;;;;;;7.33;51.20;100320.78;5052697;28;20063;-49
2022/03/13 01:20:56;;;;;;;12.35;9.25;;;;;;;7.29;50.81;100320.53;5053282;28;20060;-50
2022/03/13 01:23:24;;;;;;;11.95;9.48;;;;;;;7.28;50.87;100324.41;5053123;28;20057;-50
2022/03/13 01:26:31;;;;;;;12.60;9.65;;;;;;;7.28;51.22;100320.81;5053222;28;20053;-50
2022/03/13 01:29:00;;;;;;;12.65;9.70;;;;;;;7.22;50.81;100314.50;5053170;28;20076;-49
2022/03/13 01:31:30;;;;;;;11.38;8.73;;;;;;;7.19;51.16;100303.22;5052487;28;20501;-54
2022/03/13 01:34:00;;;;;;;11.55;9.13;;;;;;;7.21;50.10;100306.50;5053008;28;20048;-50
2022/03/13 01:36:28;;;;;;;12.07;8.98;;;;;;;7.17;50.40;100300.72;5053004;28;20053;-51
2022/03/13 01:38:59;;;;;;;13.45;10.13;;;;;;;7.14;50.97;100300.50;5053129;28;20049;-52
2022/03/13 01:41:28;;;;;;;11.68;9.38;;;;;;;7.07;50.82;100307.22;5032974;28;20487;-52
2022/03/13 01:43:59;;;;;;;11.27;8.65;;;;;;;7.04;52.06;100301.44;5048069;28;20489;-53
2022/03/13 01:46:27;;;;;;;13.02;10.95;;;;;;;6.95;53.02;100297.66;5052290;28;20060;-54
2022/03/13 01:48:57;;;;;;;13.25;10.18;;;;;;;6.91;53.24;100295.50;5052587;28;20481;-53
2022/03/13 01:51:31;;;;;;;12.25;10.15;;;;;;;6.84;53.79;100294.19;5052372;28;20056;-50
2022/03/13 01:54:01;;;;;;;13.70;10.32;;;;;;;6.78;53.37;100292.59;5052803;28;20064;-52
2022/03/13 01:56:31;;;;;;;14.50;10.45;;;;;;;6.71;53.19;100281.88;5052180;28;20053;-54
2022/03/13 01:58:58;;;;;;;13.98;10.73;;;;;;;6.66;53.96;100291.06;5052651;28;20056;-54
2022/03/13 02:01:33;;;;;;;11.13;8.50;;;;;;;6.60;53.24;100274.81;5051550;28;20049;-55
2022/03/13 02:04:00;;;;;;;12.73;9.52;;;;;;;6.56;53.88;100290.34;5051666;28;20060;-53
2022/03/13 02:06:29;;;;;;;11.27;9.30;;;;;;;6.51;53.53;100282.94;5045588;28;20054;-50
2022/03/13 02:08:57;;;;;;;13.00;10.02;;;;;;;6.44;53.98;100277.72;5046583;28;20052;-51
2022/03/13 02:11:30;;;;;;;13.48;10.85;;;;;;;6.42;54.40;100279.13;5051971;28;20053;-53
2022/03/13 02:13:57;;;;;;;12.68;10.32;;;;;;;6.34;54.17;100272.31;5045957;28;20045;-52
2022/03/13 02:16:29;;;;;;;14.15;11.02;;;;;;;6.29;54.46;100272.34;5039424;28;20057;-49
2022/03/13 02:18:57;;;;;;;13.70;11.00;;;;;;;6.22;54.71;100269.91;5051175;28;20386;-49
2022/03/13 02:21:28;;;;;;;12.63;10.40;;;;;;;6.22;54.37;100269.09;5051847;28;20413;-53
2022/03/13 02:24:00;;;;;;;11.93;9.60;;;;;;;6.19;54.69;100264.13;5047865;28;20060;-53
2022/03/13 02:26:28;;;;;;;12.48;10.10;;;;;;;6.13;54.49;100266.09;5051944;28;20049;-54
2022/03/13 02:28:56;;;;;;;12.57;10.05;;;;;;;6.13;54.08;100263.34;5041555;28;20045;-54
2022/03/13 02:31:28;;;;;;;11.90;9.27;;;;;;;6.09;54.32;100254.81;5049244;28;20234;-55
2022/03/13 02:33:57;;;;;;;12.05;8.90;;;;;;;6.04;54.68;100252.09;5052074;28;20053;-50
2022/03/13 02:36:41;;;;;;;12.25;9.57;;;;;;;6.03;54.62;100249.63;5046703;28;20065;-54
2022/03/13 02:39:11;;;;;;;11.75;9.02;;;;;;;6.04;54.08;100252.09;5035910;28;20052;-53
2022/03/13 02:41:43;;;;;;;12.57;9.15;;;;;;;5.99;54.13;100249.38;5051261;28;20053;-51
2022/03/13 02:44:14;;;;;;;13.35;9.60;;;;;;;5.95;54.28;100253.00;5051617;28;20052;-53
2022/03/13 02:46:55;;;;;;;13.45;9.80;;;;;;;5.89;54.61;100250.25;5050875;28;20490;-49
2022/03/13 02:49:25;;;;;;;10.52;9.13;;;;;;;5.88;54.19;100248.59;5032911;28;20060;-51
2022/03/13 02:51:54;;;;;;;11.95;9.25;;;;;;;5.84;54.38;100246.72;5031949;28;20485;-54
2022/03/13 02:54:23;;;;;;;12.70;9.82;;;;;;;5.81;54.77;100250.03;5044997;28;20056;-53
2022/03/13 02:56:54;;;;;;;11.75;9.18;;;;;;;5.75;54.55;100243.72;5051411;28;20057;-54
2022/03/13 02:59:22;;;;;;;12.45;9.23;;;;;;;5.73;54.50;100239.59;5051203;28;20057;-53
2022/03/13 03:01:50;;;;;;;11.82;8.82;;;;;;;5.69;53.96;100233.81;5047222;28;20053;-51
2022/03/13 03:04:18;;;;;;;10.20;8.48;;;;;;;5.63;53.95;100240.50;5050647;28;20063;-53
2022/03/13 03:06:55;;;;;;;11.85;8.95;;;;;;;5.55;54.37;100233.66;5040023;28;20053;-49
2022/03/13 03:09:24;;;;;;;12.40;9.00;;;;;;;5.54;54.45;100226.44;5044272;28;20409;-50
2022/03/13 03:11:52;;;;;;;11.13;9.30;;;;;;;5.51;54.51;100232.56;5051449;28;20064;-51
2022/03/13 03:14:20;;;;;;;11.57;9.27;;;;;;;5.48;54.54;100239.50;5050870;28;20464;-54
2022/03/13 03:16:48;;;;;;;13.98;9.95;;;;;;;5.45;55.10;100234.53;5046410;28;20052;-53
2022/03/13 03:19:16;;;;;;;12.57;9.90;;;;;;;5.42;55.24;100234.28;5055243;28;20072;-52
2022/03/13 03:21:43;;;;;;;12.48;10.50;;;;;;;5.40;56.08;100225.47;5055586;28;20049;-51
2022/03/13 03:24:13;;;;;;;12.18;9.23;;;;;;;5.37;55.86;100220.50;5055319;28;20053;-51
2022/03/13 03:26:42;;;;;;;13.30;10.23;;;;;;;5.36;55.87;100227.16;5054940;28;20056;-50
2022/03/13 03:29:10;;;;;;;11.82;9.38;;;;;;;5.35;56.02;100219.97;5050795;28;20052;-50
2022/03/13 03:31:41;;;;;;;13.85;9.27;;;;;;;5.32;55.59;100223.31;5054746;28;20056;-50
2022/03/13 03:34:11;;;;;;;12.50;9.77;;;;;;;5.28;54.96;100223.03;5054898;28;20053;-51
2022/03/13 03:36:43;;;;;;;12.88;9.93;;;;;;;5.25;55.16;100231.91;5050930;28;20076;-54
2022/03/13 03:39:11;;;;;;;12.68;9.35;;;;;;;5.22;55.83;100233.28;5054474;28;20049;-53
2022/03/13 03:41:40;;;;;;;11.60;9.82;;;;;;;5.18;56.41;100234.97;5034850;28;20053;-51
2022/03/13 03:44:11;;;;;;;13.18;10.30;;;;;;;5.09;57.36;100233.91;5038891;28;20045;-50
2022/03/13 03:46:43;;;;;;;14.05;10.10;;;;;;;5.08;57.21;100232.25;5048427;28;20068;-53
2022/03/13 03:49:10;;;;;;;11.80;9.38;;;;;;;5.08;56.71;100221.22;5054998;28;20418;-55
2022/03/13 03:51:39;;;;;;;10.65;8.80;;;;;;;5.05;56.65;100214.31;5054528;28;20132;-55
2022/03/13 03:54:07;;;;;;;11.40;9.48;;;;;;;5.02;57.62;100225.13;5055047;28;20057;-52
2022/03/13 03:56:35;;;;;;;14.38;11.07;;;;;;;5.00;57.52;100222.66;5054469;28;20057;-53
2022/03/13 03:59:03;;;;;;;11.88;9.32;;;;;;;4.96;57.71;100223.50;5054385;28;20052;-54
2022/03/13 04:01:38;;;;;;;13.30;9.98;;;;;;;4.97;57.65;100230.66;5054404;28;20048;-52
2022/03/13 04:04:07;;;;;;;12.40;10.00;;;;;;;4.88;57.52;100220.19;5055176;28;20052;-49
2022/03/13 04:06:38;;;;;;;12.27;9.63;;;;;;;4.84;56.79;100219.13;5054734;28;20053;-54
2022/03/13 04:09:06;;;;;;;12.38;8.98;;;;;;;4.85;56.62;100214.41;5055117;28;20489;-51
2022/03/13 04:11:34;;;;;;;11.15;8.55;;;;;;;4.83;56.42;100217.47;5054540;28;20072;-50
2022/03/13 04:14:02;;;;;;;9.57;7.20;;;;;;;4.96;49.58;100215.22;5054677;28;20057;-51
2022/03/13 04:16:30;;;;;;;14.63;8.75;;;;;;;5.16;51.23;100217.03;5053430;28;20053;-52
2022/03/13 04:19:01;;;;;;;12.52;9.23;;;;;;;5.18;53.88;100212.06;5054538;28;20412;-52
2022/03/13 04:21:28;;;;;;;12.07;9.23;;;;;;;5.14;54.79;100216.50;5054360;28;20045;-51
2022/03/13 04:23:56;;;;;;;11.38;8.55;;;;;;;5.12;55.31;100213.19;5054409;28;20466;-54
2022/03/13 04:26:24;;;;;;;13.23;10.10;;;;;;;5.06;55.96;100206.88;5054269;28;20056;-53
2022/03/13 04:28:51;;;;;;;13.73;10.65;;;;;;;5.03;56.34;100218.47;5054274;28;20053;-51
2022/03/13 04:31:19;;;;;;;14.90;10.10;;;;;;;4.99;56.70;100215.47;5052960;28;20481;-52
2022/03/13 04:33:47;;;;;;;12.13;9.57;;;;;;;4.95;56.71;100213.56;5053789;28;20060;-50
2022/03/13 04:36:20;;;;;;;13.43;11.25;;;;;;;4.88;57.06;100209.16;5054101;28;20512;-52
2022/03/13 04:38:47;;;;;;;13.07;9.93;;;;;;;4.83;57.00;100206.44;5054152;28;20057;-51
2022/03/13 04:41:14;;;;;;;13.68;9.60;;;;;;;4.80;57.13;100201.47;5035551;28;20049;-50
2022/03/13 04:43:43;;;;;;;12.60;9.73;;;;;;;4.75;56.69;100208.97;5034044;28;20053;-52
2022/03/13 04:46:10;;;;;;;11.10;8.50;;;;;;;4.76;55.35;100203.16;5039156;28;20049;-51
2022/03/13 04:48:38;;;;;;;11.38;9.43;;;;;;;4.73;55.84;100200.16;5054146;28;20493;-51
2022/03/13 04:51:05;;;;;;;11.93;9.02;;;;;;;4.73;55.36;100191.88;5053799;28;20052;-53
2022/03/13 04:53:34;;;;;;;12.40;9.35;;;;;;;4.69;56.13;100199.88;5053698;28;20052;-51
2022/03/13 04:56:01;;;;;;;11.77;9.13;;;;;;;4.71;56.10;100196.84;5053165;28;20529;-50
2022/03/13 04:58:29;;;;;;;10.55;8.77;;;;;;;4.72;55.55;100202.06;5053414;28;20049;-51
2022/03/13 05:00:56;;;;;;;12.05;9.40;;;;;;;4.73;54.97;100195.44;5053242;28;20366;-52
2022/03/13 05:03:24;;;;;;;12.55;9.23;;;;;;;4.74;54.95;100197.09;5053161;28;20056;-51
2022/03/13 05:05:56;;;;;;;10.00;7.63;;;;;;;4.76;52.14;100194.06;5053367;28;20068;-52
2022/03/13 05:08:23;;;;;;;12.63;8.45;;;;;;;4.74;52.92;100197.09;5053582;28;20048;-53
2022/03/13 05:10:53;;;;;;;9.95;7.53;;;;;;;4.79;52.68;100190.75;5053481;28;20052;-53
2022/03/13 05:13:22;;;;;;;10.13;8.02;;;;;;;4.82;50.92;100198.44;5053085;28;20061;-53
2022/03/13 05:15:52;;;;;;;12.37;7.70;;;;;;;4.86;51.63;100196.75;5053400;28;20057;-50
2022/03/13 05:18:20;;;;;;;;;;;;;;;4.84;50.81;100190.69;5053154;28;20123;-52
2022/03/13 05:20:47;;;;;;;9.65;7.90;;;;;;;4.84;48.43;100187.94;5053413;28;19925;-54
2022/03/13 05:23:16;;;;;;;9.95;7.53;;;;;;;4.89;48.28;100185.16;5052991;28;20064;-50
2022/03/13 05:25:44;;;;;;;11.53;7.60;;;;;;;4.93;48.08;100194.50;5053409;28;20386;-49
2022/03/13 05:28:13;;;;;;;9.88;7.72;;;;;;;4.91;49.26;100204.19;5052956;28;20498;-50
2022/03/13 05:30:43;;;;;;;11.60;8.00;;;;;;;4.90;50.47;100210.84;5052951;28;20052;-50
2022/03/13 05:33:10;;;;;;;11.52;8.43;;;;;;;4.87;51.65;100215.81;5052648;28;20049;-53
2022/03/13 05:35:37;;;;;;;12.63;9.23;;;;;;;4.84;52.42;100215.53;5052652;28;20060;-53
2022/03/13 05:38:07;;;;;;;11.43;9.55;;;;;;;4.80;52.63;100220.78;5052879;28;20405;-54
2022/03/13 05:40:35;;;;;;;12.25;9.18;;;;;;;4.77;52.68;100221.38;5038953;28;20473;-52
2022/03/13 05:43:04;;;;;;;12.52;9.25;;;;;;;4.75;51.98;100218.06;5032854;28;20401;-51
2022/03/13 05:45:37;;;;;;;10.07;8.37;;;;;;;4.72;51.54;100215.84;5033039;28;20053;-54
2022/03/13 05:48:08;;;;;;;10.90;8.20;;;;;;;4.71;51.47;100221.69;5051151;28;20479;-52
2022/03/13 05:50:35;;;;;;;11.85;8.07;;;;;;;4.68;51.64;100223.88;5052482;28;20067;-51
2022/03/13 05:53:06;;;;;;;11.15;8.80;;;;;;;4.69;52.45;100210.91;5052894;28;20049;-54
2022/03/13 05:55:33;;;;;;;10.35;7.95;;;;;;;4.68;52.03;100217.53;5052089;28;20048;-53
2022/03/13 05:58:03;;;;;;;11.43;8.93;;;;;;;4.70;52.14;100217.25;5052018;28;20053;-51
2022/03/13 06:00:32;;;;;;;12.95;9.35;;;;;;;4.67;52.25;100216.69;5052020;28;20052;-54
2022/03/13 06:03:02;;;;;;;12.15;9.23;;;;;;;4.65;51.57;100212.56;5051667;28;20051;-52
2022/03/13 06:05:34;;;;;;;10.90;8.30;;;;;;;4.59;50.83;100214.53;5051947;28;20072;-50
2022/03/13 06:08:03;;;;;;;11.10;8.52;;;;;;;4.62;50.62;100211.22;5052295;28;20049;-51
2022/03/13 06:10:30;;;;;;;12.38;8.50;;;;;;;4.71;50.67;100221.69;5052342;28;20052;-50
2022/03/13 06:12:57;;;;;;;11.02;8.43;;;;;;;4.76;49.50;100216.13;5052334;28;20481;-51
2022/03/13 06:15:24;;;;;;;12.45;8.63;;;;;;;4.82;50.58;100229.63;5051691;28;20053;-50
2022/03/13 06:17:53;;;;;;;13.05;9.10;;;;;;;4.82;50.21;100226.84;5051486;28;20107;-53
2022/03/13 06:20:22;;;;;;;10.57;7.93;;;;;;;4.96;50.02;100216.03;5052214;28;20053;-53
2022/03/13 06:22:49;;;;;;;11.13;8.60;;;;;;;5.08;48.91;100216.53;5052201;28;20064;-53
2022/03/13 06:25:18;;;;;;;12.05;8.43;;;;;;;5.21;48.64;100220.59;5052210;28;20049;-51
2022/03/13 06:27:46;;;;;;;10.07;8.00;;;;;;;5.33;47.94;100227.72;5052024;28;20505;-54
2022/03/13 06:30:16;;;;;;;10.23;8.35;;;;;;;5.50;47.53;100219.84;5052374;28;20053;-51
2022/03/13 06:32:45;;;;;;;11.27;8.45;;;;;;;5.70;48.89;100216.13;5051252;28;20056;-50
2022/03/13 06:35:14;;;;;;;12.75;8.95;;;;;;;6.02;49.31;100209.25;5052028;28;20057;-49
2022/03/13 06:37:43;;;;;;;12.75;9.15;;;;;;;6.38;48.69;100206.94;5051344;28;20477;-54
2022/03/13 06:40:11;;;;;;;10.73;8.55;;;;;;;6.70;47.63;100202.75;5051226;28;20048;-53
2022/03/13 06:42:39;;;;;;;12.45;8.10;;;;;;;7.22;47.01;100203.69;5051304;28;20508;-53
2022/03/13 06:45:10;;;;;;;13.43;9.32;;;;;;;7.91;45.35;100197.66;5051245;28;20075;-52
2022/03/13 06:47:38;;;;;;;11.13;8.77;;;;;;;8.63;44.29;100205.53;5046483;28;20061;-50
2022/03/13 06:50:07;;;;;;;13.30;9.27;;;;;;;9.17;43.56;100205.78;5051248;28;20053;-51
2022/03/13 06:52:34;;;;;;;11.10;9.57;;;;;;;9.67;42.15;100202.16;5050918;28;20048;-50
2022/03/13 06:55:05;;;;;;;11.65;9.32;;;;;;;10.12;41.54;100208.53;5051093;28;20052;-50
2022/03/13 06:57:32;;;;;;;10.70;8.80;;;;;;;10.77;39.92;100203.47;5051210;28;20063;-50
2022/03/13 07:00:00;;;;;;;12.52;9.38;;;;;;;11.46;39.32;100199.19;5051326;28;20056;-51
2022/03/13 07:02:28;;;;;;;11.27;9.00;;;;;;;11.92;37.34;100194.94;5050655;28;20052;-50
2022/03/13 07:04:55;;;;;;;11.77;8.15;;;;;;;12.73;36.75;100193.22;5051579;28;20063;-53
2022/03/13 07:07:22;;;;;;;10.18;7.97;;;;;;;13.20;34.71;100190.31;5051208;28;20486;-52
2022/03/13 07:09:51;;;;;;;10.48;8.23;;;;;;;13.91;34.37;100188.66;5051589;28;20394;-51
2022/03/13 07:12:23;;;;;;;11.20;9.90;;;;;;;14.60;33.03;100187.91;5050920;28;20087;-51
2022/03/13 07:14:50;;;;;;;11.13;8.80;;;;;;;15.39;31.27;100196.06;5051280;28;20056;-52
2022/03/13 07:17:21;;;;;;;12.13;9.50;;;;;;;16.12;31.48;100193.38;5050341;28;20052;-53
2022/03/13 07:19:48;;;;;;;9.23;8.32;;;;;;;16.94;31.23;100201.16;5051310;28;20048;-54
2022/03/13 07:22:16;;;;;;;10.18;8.80;;;;;;;17.91;28.73;100188.47;5051255;28;20049;-52
2022/03/13 07:24:46;;;;;;;10.27;9.27;;;;;;;18.77;27.27;100192.91;5051288;28;20053;-53
2022/03/13 07:27:15;;;;;;;9.55;8.55;;;;;;;19.56;26.29;100188.50;5051061;28;20060;-54
2022/03/13 07:29:43;;;;;;;10.00;8.87;;;;;;;20.16;24.74;100193.31;5050662;28;20421;-51
2022/03/13 07:32:11;;;;;;;10.80;9.70;;;;;;;20.79;24.29;100208.53;5050648;28;20049;-51
2022/03/13 07:34:38;;;;;;;10.35;9.35;;;;;;;21.47;23.22;100198.56;5051226;28;20079;-52
2022/03/13 07:37:06;;;;;;;10.13;9.13;;;;;;;21.93;22.39;100200.00;5051079;28;20062;-53
2022/03/13 07:39:33;;;;;;;9.45;8.43;;;;;;;22.83;20.59;100203.09;5050911;28;20512;-52
2022/03/13 07:42:01;;;;;;;9.63;8.38;;;;;;;23.47;19.52;100185.97;5050271;28;20056;-53
2022/03/13 07:44:28;;;;;;;10.15;8.65;;;;;;;23.77;18.70;100190.41;5050397;28;20417;-56
2022/03/13 07:46:57;;;;;;;9.60;8.60;;;;;;;24.52;18.79;100192.88;5050251;28;20049;-53
2022/03/13 07:49:24;;;;;;;9.25;8.25;;;;;;;24.39;17.77;100182.38;5050711;28;20049;-52
2022/03/13 07:51:52;;;;;;;9.23;8.32;;;;;;;23.82;16.91;100195.66;5050930;28;20053;-50
2022/03/13 07:54:20;;;;;;;8.85;7.95;;;;;;;23.58;16.54;100199.38;5050984;28;20060;-52
2022/03/13 07:56:47;;;;;;;9.27;7.93;;;;;;;23.78;17.39;100200.56;5048891;28;20506;-53
2022/03/13 07:59:15;;;;;;;10.02;8.32;;;;;;;24.59;16.24;100197.75;5043843;28;20053;-56
2022/03/13 08:01:42;;;;;;;10.30;8.23;;;;;;;25.20;15.31;100187.84;5050144;28;20060;-54
2022/03/13 08:04:11;;;;;;;9.30;8.10;;;;;;;25.90;15.34;100188.38;5052318;28;20056;-55
2022/03/13 08:06:39;;;;;;;7.90;7.10;;;;;;;26.59;14.57;100191.13;5054691;28;20075;-52
2022/03/13 08:09:07;;;;;;;10.00;8.13;;;;;;;27.16;14.06;100185.69;5054738;28;20354;-54
2022/03/13 08:11:36;;;;;;;9.10;8.20;;;;;;;27.86;13.57;100191.34;5054237;28;20049;-51
2022/03/13 08:14:03;;;;;;;9.05;8.02;;;;;;;28.23;13.71;100191.41;5054897;28;20056;-53
2022/03/13 08:16:33;;;;;;;9.50;8.15;;;;;;;28.88;13.02;100182.13;5050566;28;20060;-51
2022/03/13 08:19:02;;;;;;;8.95;8.13;;;;;;;29.70;12.54;100182.03;5054693;28;20426;-55
2022/03/13 08:21:31;;;;;;;9.68;8.63;;;;;;;29.37;12.50;100178.41;5053940;28;20056;-55
2022/03/13 08:23:59;;;;;;;9.25;8.35;;;;;;;30.11;11.68;100180.41;5054141;28;20060;-56
2022/03/13 08:26:27;;;;;;;9.18;8.27;;;;;;;30.56;11.49;100182.31;5053547;28;20520;-54
2022/03/13 08:28:54;;;;;;;12.80;7.88;;;;;;;30.50;11.55;100182.09;5052225;28;20045;-51
2022/03/13 08:31:22;;;;;;;8.77;7.97;;;;;;;30.46;11.68;100177.72;5053108;28;20155;-54
2022/03/13 08:33:50;;;;;;;9.32;8.43;;;;;;;30.10;11.40;100181.69;5050745;28;20132;-51
2022/03/13 08:36:17;;;;;;;9.15;8.10;;;;;;;30.75;10.83;100177.59;5052725;28;21037;-53
2022/03/13 08:38:46;;;;;;;8.73;7.30;;;;;;;31.33;9.92;100174.41;5051953;28;20067;-55
2022/03/13 08:41:13;;;;;;;8.00;7.20;;;;;;;31.09;10.43;100178.97;5050268;28;20053;-56
2022/03/13 08:43:41;;;;;;;8.50;7.70;;;;;;;29.95;10.32;100182.09;5044429;28;20061;-57
2022/03/13 08:46:12;;;;;;;8.63;7.63;;;;;;;30.06;10.09;100166.63;5050819;28;20053;-56
2022/03/13 08:48:41;;;;;;;8.98;7.70;;;;;;;29.94;10.87;100171.06;5052778;28;20482;-57
2022/03/13 08:51:11;;;;;;;8.85;7.95;;;;;;;29.85;10.63;100168.06;5052451;28;20045;-54
2022/03/13 08:53:39;;;;;;;10.10;8.93;;;;;;;30.60;10.39;100170.72;5053296;28;20067;-53
2022/03/13 08:56:07;;;;;;;10.18;8.82;;;;;;;30.99;10.31;100168.63;5050907;28;20049;-54
2022/03/13 08:58:35;;;;;;;;;;;;;;;31.17;10.60;100168.00;5039375;28;20131;-54
2022/03/13 09:01:02;;;;;;;9.25;8.35;;;;;;;31.14;10.42;100172.59;5047015;28;19929;-53
2022/03/13 09:03:29;;;;;;;12.02;9.20;;;;;;;30.61;10.47;100172.31;5036308;28;20056;-53
2022/03/13 09:05:56;;;;;;;10.40;9.48;;;;;;;30.44;10.77;100181.03;5049480;28;20045;-52
2022/03/13 09:08:24;;;;;;;9.60;8.38;;;;;;;30.16;11.05;100165.50;5037405;28;20060;-57
2022/03/13 09:10:53;;;;;;;9.38;8.38;;;;;;;30.22;11.11;100166.53;5053140;28;20059;-56
2022/03/13 09:13:22;;;;;;;9.10;8.23;;;;;;;30.29;11.01;100168.41;5052561;28;20064;-57
2022/03/13 09:15:56;;;;;;;8.77;7.93;;;;;;;30.79;10.39;100166.00;5033985;28;20061;-57
2022/03/13 09:18:23;;;;;;;9.25;8.30;;;;;;;30.12;10.31;100161.91;5052744;28;20057;-57
2022/03/13 09:20:51;;;;;;;9.25;8.45;;;;;;;29.97;10.36;100164.41;5050825;28;20064;-56
2022/03/13 09:23:18;;;;;;;9.25;8.32;;;;;;;30.01;10.06;100164.28;5046820;28;20050;-57
2022/03/13 09:25:45;;;;;;;9.07;8.20;;;;;;;29.47;10.99;100171.56;5050592;28;20053;-57
2022/03/13 09:28:13;;;;;;;8.77;7.88;;;;;;;29.85;10.40;100168.06;5048011;28;20061;-57
2022/03/13 09:30:42;;;;;;;9.18;7.85;;;;;;;30.52;10.39;100175.88;5032979;28;20053;-57
2022/03/13 09:33:12;;;;;;;9.93;8.07;;;;;;;30.46;10.41;100166.22;5050255;28;20056;-56
2022/03/13 09:35:39;;;;;;;9.38;8.40;;;;;;;30.64;9.96;100174.25;5044851;28;20060;-57
2022/03/13 09:38:07;;;;;;;10.10;7.60;;;;;;;31.17;9.59;100182.41;5044935;28;20057;-54
2022/03/13 09:40:35;;;;;;;9.88;8.98;;;;;;;30.44;10.16;100169.56;5048956;28;20052;-57
2022/03/13 09:43:05;;;;;;;9.70;8.73;;;;;;;30.25;10.30;100174.22;5051825;28;20347;-57
2022/03/13 09:45:33;;;;;;;9.85;8.85;;;;;;;29.92;10.38;100168.66;5052547;28;20061;-57
2022/03/13 09:48:03;;;;;;;9.67;8.73;;;;;;;29.98;10.46;100159.47;5051649;28;20407;-57
2022/03/13 09:50:32;;;;;;;9.20;8.30;;;;;;;30.11;10.44;100166.88;5052578;28;20060;-56
2022/03/13 09:52:59;;;;;;;10.00;8.90;;;;;;;30.29;10.47;100165.53;5052762;28;20045;-58
2022/03/13 09:55:27;;;;;;;9.38;8.48;;;;;;;29.71;11.21;100161.50;5052520;28;20072;-58
2022/03/13 09:57:54;;;;;;;9.70;8.80;;;;;;;30.28;10.66;100163.88;5052414;28;20060;-57
2022/03/13 10:00:24;;;;;;;10.27;9.27;;;;;;;29.91;10.87;100171.97;5052604;28;20049;-56
2022/03/13 10:02:53;;;;;;;9.75;8.75;;;;;;;30.09;10.66;100168.56;5050947;28;20045;-56
2022/03/13 10:05:27;;;;;;;10.73;9.00;;;;;;;30.00;10.79;100156.94;5051200;28;20052;-57
2022/03/13 10:07:59;;;;;;;9.82;8.90;;;;;;;29.48;10.70;100159.66;5052188;28;20075;-58
2022/03/13 10:10:28;;;;;;;9.65;8.63;;;;;;;29.73;11.43;100161.00;5052506;28;20048;-57
2022/03/13 10:12:56;;;;;;;10.00;9.10;;;;;;;29.53;11.36;100164.81;5051995;28;20057;-55
2022/03/13 10:15:25;;;;;;;10.75;9.65;;;;;;;29.52;10.91;100163.22;5052244;28;20053;-57
2022/03/13 10:17:53;;;;;;;10.40;9.30;;;;;;;28.43;11.96;100168.41;5051186;28;20060;-56
2022/03/13 10:20:24;;;;;;;9.63;8.73;;;;;;;29.91;11.36;100164.16;5051954;28;20057;-56
2022/03/13 10:23:03;;;;;;;9.57;8.68;;;;;;;30.15;11.02;100161.00;5051782;28;20049;-52
2022/03/13 10:25:35;;;;;;;9.93;8.98;;;;;;;30.55;11.10;100174.94;5052137;28;20065;-53
2022/03/13 10:28:19;;;;;;;10.70;9.70;;;;;;;30.47;10.74;100170.69;5051788;28;20064;-57
2022/03/13 10:30:51;;;;;;;9.85;8.95;;;;;;;31.26;10.70;100170.97;5051428;28;20053;-57
2022/03/13 10:33:19;;;;;;;10.77;9.68;;;;;;;31.01;10.69;100166.88;5051341;28;20473;-54
2022/03/13 10:35:48;;;;;;;9.70;8.70;;;;;;;31.19;10.81;100169.16;5051233;28;20409;-55
2022/03/13 10:38:17;;;;;;;9.80;8.90;;;;;;;30.68;11.04;100164.28;5051954;28;20049;-55
2022/03/13 10:40:46;;;;;;;10.10;9.10;;;;;;;31.21;10.96;100155.09;5051746;28;20119;-55
2022/03/13 10:43:19;;;;;;;10.63;9.63;;;;;;;32.04;10.63;100140.56;5051772;28;20458;-56
2022/03/13 10:45:53;;;;;;;10.13;9.13;;;;;;;32.32;10.43;100150.97;5051406;28;20053;-55
2022/03/13 10:48:28;;;;;;;9.98;8.98;;;;;;;32.35;10.34;100144.25;5051882;28;20049;-56
2022/03/13 10:50:59;;;;;;;9.38;8.55;;;;;;;33.22;10.32;100144.41;5051859;28;20048;-57
2022/03/13 10:53:28;;;;;;;9.40;8.40;;;;;;;33.76;9.62;100137.00;5051700;28;20053;-53
2022/03/13 10:56:08;;;;;;;10.02;9.13;;;;;;;34.58;9.41;100145.91;5051183;28;20072;-54
2022/03/13 10:58:37;;;;;;;10.15;9.15;;;;;;;34.63;8.71;100148.16;5051101;28;20048;-58
2022/03/13 11:01:07;;;;;;;10.02;9.02;;;;;;;34.88;9.52;100140.31;5049398;28;20072;-55
2022/03/13 11:03:35;;;;;;;10.50;9.50;;;;;;;34.48;9.23;100144.34;5047354;28;20045;-55
2022/03/13 11:06:05;;;;;;;9.55;8.57;;;;;;;34.30;9.60;100146.03;5042053;28;20061;-56
2022/03/13 11:08:33;;;;;;;10.40;9.40;;;;;;;34.43;9.46;100147.91;5047097;28;20057;-57
2022/03/13 11:11:02;;;;;;;9.52;8.68;;;;;;;33.95;10.00;100142.75;5048419;28;20060;-57
2022/03/13 11:13:30;;;;;;;10.57;9.55;;;;;;;33.75;9.35;100146.16;5037749;28;20052;-52
2022/03/13 11:15:58;;;;;;;10.02;9.02;;;;;;;34.79;9.14;100137.47;5043176;28;20048;-54
2022/03/13 11:18:32;;;;;;;9.43;8.52;;;;;;;34.68;9.04;100138.03;5050654;28;20045;-53
2022/03/13 11:21:00;;;;;;;11.05;9.40;;;;;;;35.49;8.94;100129.28;5035555;28;20065;-57
2022/03/13 11:23:33;;;;;;;10.80;9.77;;;;;;;36.13;8.59;100135.72;5038685;28;20059;-58
2022/03/13 11:26:02;;;;;;;9.95;8.95;;;;;;;36.22;8.93;100131.94;5038063;28;20430;-54
2022/03/13 11:28:29;;;;;;;9.65;8.85;;;;;;;36.05;8.37;100135.31;5036508;28;20378;-55
2022/03/13 11:31:00;;;;;;;9.33;8.43;;;;;;;36.63;8.35;100114.69;5036767;28;20045;-58
2022/03/13 11:33:34;;;;;;;9.27;8.50;;;;;;;37.56;8.44;100114.81;5042497;28;20490;-55